createdAt,value
2022-11-06T00:01:14.660Z,7.80
2022-11-06T00:03:41.770Z,7.73
2022-11-06T00:06:28.154Z,7.60
2022-11-06T00:08:55.145Z,7.50
2022-11-06T00:11:22.039Z,8.17
2022-11-06T00:13:49.479Z,7.93
2022-11-06T00:16:16.298Z,6.90
2022-11-06T00:18:43.017Z,7.93
2022-11-06T00:21:11.516Z,7.63
2022-11-06T00:23:38.730Z,7.50
2022-11-06T00:26:07.519Z,7.80
2022-11-06T00:28:34.396Z,8.37
2022-11-06T00:31:06.557Z,9.50
2022-11-06T00:33:33.632Z,9.80
2022-11-06T00:36:06.301Z,9.53
2022-11-06T00:38:33.406Z,10.03
2022-11-06T00:41:04.848Z,9.73
2022-11-06T00:43:32.966Z,10.23
2022-11-06T00:46:07.907Z,9.13
2022-11-06T00:48:35.296Z,9.43
2022-11-06T00:51:07.383Z,8.87
2022-11-06T00:53:34.226Z,8.33
2022-11-06T00:56:12.641Z,8.60
2022-11-06T00:58:59.254Z,8.50
2022-11-06T01:01:50.403Z,8.30
2022-11-06T01:04:21.922Z,8.40
2022-11-06T01:06:50.934Z,7.80
2022-11-06T01:09:19.818Z,7.50
2022-11-06T01:12:12.452Z,7.83
2022-11-06T01:14:40.140Z,6.80
2022-11-06T01:17:07.119Z,7.27
2022-11-06T01:19:33.783Z,7.20
2022-11-06T01:22:00.444Z,6.63
2022-11-06T01:24:28.667Z,6.83
2022-11-06T01:27:24.913Z,7.10
2022-11-06T01:29:42.633Z,6.87
2022-11-06T01:32:09.560Z,6.90
2022-11-06T01:34:36.297Z,6.10
2022-11-06T01:37:03.192Z,6.73
2022-11-06T01:39:31.168Z,7.00
2022-11-06T01:41:57.900Z,6.60
2022-11-06T01:44:33.813Z,6.80
2022-11-06T01:47:01.981Z,7.13
2022-11-06T01:49:33.199Z,6.43
2022-11-06T01:52:06.340Z,6.97
2022-11-06T01:54:34.556Z,6.53
2022-11-06T01:57:02.341Z,6.53
2022-11-06T01:59:31.704Z,6.47
2022-11-06T02:01:58.753Z,6.83
2022-11-06T02:04:36.222Z,6.93
2022-11-06T02:07:03.330Z,6.40
2022-11-06T02:09:30.945Z,6.73
2022-11-06T02:12:15.345Z,6.73
2022-11-06T02:15:31.313Z,6.83
2022-11-06T02:18:14.154Z,6.47
2022-11-06T02:20:54.518Z,6.30
2022-11-06T02:23:24.225Z,6.20
2022-11-06T02:26:17.192Z,6.90
2022-11-06T02:29:10.275Z,6.50
2022-11-06T02:31:40.781Z,6.47
2022-11-06T02:34:12.847Z,6.40
2022-11-06T02:36:50.749Z,6.50
2022-11-06T02:39:19.484Z,6.47
2022-11-06T02:41:47.172Z,5.93
2022-11-06T02:44:20.834Z,7.00
2022-11-06T02:46:51.916Z,6.70
2022-11-06T02:49:28.675Z,6.30
2022-11-06T02:51:59.088Z,6.50
2022-11-06T02:54:27.714Z,6.23
2022-11-06T02:56:56.195Z,6.37
2022-11-06T02:59:30.841Z,6.10
2022-11-06T03:02:08.107Z,6.57
2022-11-06T03:04:42.830Z,6.03
2022-11-06T03:07:21.118Z,6.17
2022-11-06T03:09:48.734Z,6.27
2022-11-06T03:12:26.067Z,6.17
2022-11-06T03:15:23.652Z,6.40
2022-11-06T03:18:20.000Z,6.63
2022-11-06T03:21:16.587Z,5.97
2022-11-06T03:23:55.833Z,6.50
2022-11-06T03:26:46.249Z,6.57
2022-11-06T03:29:29.734Z,6.73
2022-11-06T03:32:14.989Z,6.50
2022-11-06T03:34:48.554Z,6.53
2022-11-06T03:37:39.317Z,5.93
2022-11-06T03:40:10.069Z,6.47
2022-11-06T03:42:37.812Z,5.93
2022-11-06T03:45:09.904Z,6.20
2022-11-06T03:47:45.934Z,6.67
2022-11-06T03:50:24.486Z,6.67
2022-11-06T03:53:21.526Z,6.07
2022-11-06T03:55:59.262Z,6.20
2022-11-06T03:58:30.505Z,5.80
2022-11-06T04:00:58.628Z,5.70
2022-11-06T04:03:51.767Z,5.93
2022-11-06T04:06:35.861Z,5.50
2022-11-06T04:09:22.872Z,5.30
2022-11-06T04:12:09.026Z,5.70
2022-11-06T04:14:37.588Z,5.20
2022-11-06T04:17:06.902Z,6.00
2022-11-06T04:19:33.661Z,5.50
2022-11-06T04:22:23.785Z,5.33
2022-11-06T04:25:44.454Z,5.30
2022-11-06T04:28:32.900Z,5.40
2022-11-06T04:31:42.706Z,5.40
2022-11-06T04:34:20.940Z,5.50
2022-11-06T04:36:57.020Z,5.50
2022-11-06T04:39:49.862Z,5.03
2022-11-06T04:42:40.545Z,5.07
2022-11-06T04:45:12.127Z,4.87
2022-11-06T04:47:39.295Z,5.00
2022-11-06T04:50:08.451Z,4.90
2022-11-06T04:52:35.511Z,4.90
2022-11-06T04:55:02.385Z,4.90
2022-11-06T04:57:29.230Z,4.70
2022-11-06T04:59:56.831Z,4.70
2022-11-06T05:02:23.705Z,4.80
2022-11-06T05:04:50.420Z,4.87
2022-11-06T05:07:17.598Z,5.00
2022-11-06T05:09:45.591Z,4.80
2022-11-06T05:12:12.208Z,4.77
2022-11-06T05:14:38.883Z,4.60
2022-11-06T05:17:05.547Z,4.70
2022-11-06T05:19:32.148Z,4.50
2022-11-06T05:22:17.318Z,4.70
2022-11-06T05:24:43.911Z,4.70
2022-11-06T05:27:10.543Z,4.83
2022-11-06T05:29:37.132Z,4.27
2022-11-06T05:32:03.890Z,4.90
2022-11-06T05:34:30.571Z,4.50
2022-11-06T05:36:57.506Z,5.17
2022-11-06T05:39:24.120Z,4.73
2022-11-06T05:41:50.748Z,4.70
2022-11-06T05:44:17.398Z,4.77
2022-11-06T05:46:49.381Z,4.93
2022-11-06T05:49:17.278Z,4.70
2022-11-06T05:51:44.057Z,5.07
2022-11-06T05:54:10.668Z,5.03
2022-11-06T05:56:37.285Z,4.87
2022-11-06T05:59:03.983Z,4.90
2022-11-06T06:01:30.768Z,4.90
2022-11-06T06:03:58.958Z,4.60
2022-11-06T06:06:25.921Z,4.87
2022-11-06T06:08:52.529Z,4.50
2022-11-06T06:11:19.350Z,4.70
2022-11-06T06:13:45.975Z,4.40
2022-11-06T06:16:12.568Z,4.80
2022-11-06T06:18:39.248Z,4.70
2022-11-06T06:21:06.055Z,5.33
2022-11-06T06:23:32.654Z,4.70
2022-11-06T06:25:59.301Z,5.47
2022-11-06T06:28:25.906Z,4.80
2022-11-06T06:30:57.211Z,4.43
2022-11-06T06:33:26.923Z,4.33
2022-11-06T06:35:53.640Z,4.33
2022-11-06T06:38:20.463Z,4.53
2022-11-06T06:40:47.073Z,4.57
2022-11-06T06:43:13.687Z,4.83
2022-11-06T06:45:40.304Z,4.73
2022-11-06T06:48:07.364Z,4.40
2022-11-06T06:50:34.027Z,4.37
2022-11-06T06:53:00.643Z,4.33
2022-11-06T06:55:27.307Z,4.17
2022-11-06T06:57:58.956Z,4.67
2022-11-06T07:00:26.593Z,4.87
2022-11-06T07:02:53.428Z,4.63
2022-11-06T07:05:20.322Z,4.40
2022-11-06T07:07:47.323Z,4.93
2022-11-06T07:10:14.195Z,4.53
2022-11-06T07:12:40.810Z,4.50
2022-11-06T07:15:08.454Z,4.30
2022-11-06T07:17:35.103Z,4.17
2022-11-06T07:20:01.812Z,4.70
2022-11-06T07:22:35.448Z,4.30
2022-11-06T07:25:04.239Z,4.30
2022-11-06T07:27:30.845Z,4.80
2022-11-06T07:29:57.535Z,4.73
2022-11-06T07:32:24.183Z,4.50
2022-11-06T07:34:50.803Z,4.67
2022-11-06T07:37:17.488Z,4.90
2022-11-06T07:39:44.202Z,4.40
2022-11-06T07:42:10.851Z,4.70
2022-11-06T07:44:37.472Z,4.27
2022-11-06T07:47:04.347Z,4.37
2022-11-06T07:49:30.935Z,4.47
2022-11-06T07:51:57.563Z,4.43
2022-11-06T07:54:24.208Z,3.90
2022-11-06T07:56:50.840Z,4.60
2022-11-06T07:59:17.475Z,4.33
2022-11-06T08:01:44.216Z,4.37
2022-11-06T08:04:11.630Z,4.37
2022-11-06T08:06:38.216Z,4.40
2022-11-06T08:09:06.961Z,4.20
2022-11-06T08:11:33.604Z,4.30
2022-11-06T08:14:01.058Z,4.50
2022-11-06T08:16:28.056Z,4.03
2022-11-06T08:18:55.068Z,4.47
2022-11-06T08:21:21.683Z,3.80
2022-11-06T08:23:48.282Z,4.00
2022-11-06T08:26:14.907Z,4.20
2022-11-06T08:28:41.570Z,3.80
2022-11-06T08:31:09.059Z,3.63
2022-11-06T08:33:36.849Z,3.90
2022-11-06T08:36:05.175Z,3.97
2022-11-06T08:38:31.824Z,3.90
2022-11-06T08:40:58.458Z,3.90
2022-11-06T08:43:26.531Z,3.90
2022-11-06T08:45:53.591Z,3.70
2022-11-06T08:48:20.286Z,3.80
2022-11-06T08:50:46.876Z,4.10
2022-11-06T08:53:13.775Z,4.17
2022-11-06T08:55:40.657Z,3.90
2022-11-06T08:58:07.622Z,3.77
2022-11-06T09:00:35.101Z,4.00
2022-11-06T09:03:12.964Z,3.90
2022-11-06T09:05:41.718Z,4.40
2022-11-06T09:08:09.228Z,3.80
2022-11-06T09:10:37.437Z,3.90
2022-11-06T09:13:04.561Z,3.90
2022-11-06T09:15:31.616Z,3.77
2022-11-06T09:17:58.460Z,3.57
2022-11-06T09:20:26.249Z,3.93
2022-11-06T09:22:53.223Z,3.63
2022-11-06T09:25:20.243Z,3.93
2022-11-06T09:27:50.404Z,4.00
2022-11-06T09:30:20.652Z,4.37
2022-11-06T09:32:52.614Z,3.67
2022-11-06T09:35:20.322Z,4.03
2022-11-06T09:37:47.472Z,4.03
2022-11-06T09:40:26.035Z,3.97
2022-11-06T09:44:04.240Z,3.80
2022-11-06T09:46:34.593Z,4.13
2022-11-06T09:49:38.730Z,4.13
2022-11-06T09:52:26.624Z,3.97
2022-11-06T09:54:58.675Z,4.20
2022-11-06T09:57:37.304Z,4.10
2022-11-06T10:00:05.542Z,3.83
2022-11-06T10:02:45.706Z,4.60
2022-11-06T10:05:30.429Z,4.10
2022-11-06T10:08:06.538Z,4.40
2022-11-06T10:10:54.364Z,4.00
2022-11-06T10:13:58.715Z,4.07
2022-11-06T10:16:45.707Z,5.27
2022-11-06T10:19:15.204Z,4.63
2022-11-06T10:22:11.568Z,4.43
2022-11-06T10:24:52.987Z,4.50
2022-11-06T10:28:02.214Z,4.83
2022-11-06T10:31:04.765Z,4.90
2022-11-06T10:33:41.997Z,4.73
2022-11-06T10:36:13.197Z,4.73
2022-11-06T10:38:43.319Z,4.93
2022-11-06T10:41:23.349Z,4.50
2022-11-06T10:43:54.737Z,4.43
2022-11-06T10:46:31.299Z,4.70
2022-11-06T10:49:00.886Z,4.80
2022-11-06T10:51:52.994Z,4.60
2022-11-06T10:54:41.344Z,4.20
2022-11-06T10:57:16.886Z,5.47
2022-11-06T10:59:44.050Z,5.27
2022-11-06T11:02:28.101Z,5.50
2022-11-06T11:04:57.980Z,5.00
2022-11-06T11:07:26.585Z,5.30
2022-11-06T11:09:55.226Z,5.33
2022-11-06T11:12:30.648Z,5.37
2022-11-06T11:15:15.999Z,5.50
2022-11-06T11:17:49.018Z,5.17
2022-11-06T11:20:31.611Z,5.20
2022-11-06T11:23:25.869Z,5.80
2022-11-06T11:26:04.097Z,5.60
2022-11-06T11:28:34.575Z,5.10
2022-11-06T11:34:26.675Z,5.37
2022-11-06T11:36:59.110Z,5.20
2022-11-06T11:39:45.261Z,5.07
2022-11-06T11:42:31.752Z,5.40
2022-11-06T11:45:11.023Z,4.57
2022-11-06T11:52:01.596Z,4.17
2022-11-06T12:02:59.211Z,4.00
2022-11-06T12:13:36.116Z,3.77
2022-11-06T12:16:07.145Z,3.80
2022-11-06T12:18:46.987Z,3.80
2022-11-06T12:21:33.494Z,3.70
2022-11-06T12:24:12.349Z,3.77
2022-11-06T12:26:54.509Z,3.33
2022-11-06T12:29:34.852Z,3.63
2022-11-06T12:32:17.291Z,3.67
2022-11-06T12:34:54.992Z,3.83
2022-11-06T12:37:43.648Z,3.80
2022-11-06T12:40:25.008Z,3.80
2022-11-06T12:43:15.878Z,3.83
2022-11-06T12:45:54.051Z,3.60
2022-11-06T12:48:36.237Z,3.50
2022-11-06T12:51:12.820Z,3.70
2022-11-06T12:54:11.522Z,3.63
2022-11-06T12:56:57.008Z,3.83
2022-11-06T12:59:45.964Z,4.00
2022-11-06T13:02:52.923Z,4.33
2022-11-06T13:05:43.596Z,4.23
2022-11-06T13:08:33.371Z,3.97
2022-11-06T13:11:09.483Z,4.07
2022-11-06T13:14:10.466Z,4.03
2022-11-06T13:16:53.256Z,3.37
2022-11-06T13:19:29.153Z,3.87
2022-11-06T13:22:05.168Z,3.80
2022-11-06T13:24:49.346Z,3.93
2022-11-06T13:27:30.992Z,3.03
2022-11-06T13:30:03.286Z,3.70
2022-11-06T13:32:32.800Z,3.13
2022-11-06T13:35:00.104Z,3.57
2022-11-06T13:37:39.380Z,3.43
2022-11-06T13:40:26.660Z,3.33
2022-11-06T13:43:11.882Z,3.30
2022-11-06T13:46:06.766Z,3.10
2022-11-06T13:48:52.262Z,3.10
2022-11-06T13:51:38.871Z,3.00
2022-11-06T13:54:15.049Z,2.80
2022-11-06T13:56:56.292Z,2.90
2022-11-06T14:00:02.984Z,2.60
2022-11-06T14:02:59.928Z,2.60
2022-11-06T14:06:06.181Z,2.50
2022-11-06T14:08:55.389Z,2.63
2022-11-06T14:11:37.152Z,2.60
2022-11-06T14:14:18.199Z,2.40
2022-11-06T14:16:45.144Z,2.80
2022-11-06T14:19:20.693Z,2.60
2022-11-06T14:21:55.812Z,2.60
2022-11-06T14:24:33.953Z,2.40
2022-11-06T14:27:12.200Z,2.30
2022-11-06T14:29:38.802Z,2.10
2022-11-06T14:32:21.443Z,2.50
2022-11-06T14:34:48.441Z,2.60
2022-11-06T14:37:18.162Z,2.30
2022-11-06T14:39:56.804Z,2.10
2022-11-06T14:42:27.023Z,2.27
2022-11-06T14:44:56.462Z,2.13
2022-11-06T14:47:43.519Z,2.13
2022-11-06T14:50:38.210Z,2.10
2022-11-06T14:53:23.146Z,2.20
2022-11-06T14:56:03.167Z,2.30
2022-11-06T14:58:54.690Z,2.10
2022-11-06T15:01:33.105Z,2.40
2022-11-06T15:04:04.755Z,2.30
2022-11-06T15:06:31.372Z,1.90
2022-11-06T15:09:13.412Z,2.03
2022-11-06T15:11:47.496Z,2.37
2022-11-06T15:14:14.706Z,2.40
2022-11-06T15:17:07.659Z,2.00
2022-11-06T15:19:41.863Z,2.17
2022-11-06T15:22:35.688Z,1.70
2022-11-06T15:25:17.131Z,2.30
2022-11-06T15:27:53.616Z,1.87
2022-11-06T15:30:22.298Z,2.07
2022-11-06T15:32:49.627Z,1.93
2022-11-06T15:35:22.431Z,2.00
2022-11-06T15:37:53.025Z,2.00
2022-11-06T15:40:36.515Z,1.93
2022-11-06T15:43:22.655Z,1.93
2022-11-06T15:46:07.005Z,1.90
2022-11-06T15:48:34.921Z,2.00
2022-11-06T15:51:01.750Z,1.90
2022-11-06T15:53:29.920Z,2.07
2022-11-06T15:55:58.622Z,2.07
2022-11-06T15:58:31.019Z,2.17
2022-11-06T16:01:02.756Z,2.40
2022-11-06T16:03:32.225Z,2.40
2022-11-06T16:06:02.163Z,2.33
2022-11-06T16:08:30.153Z,2.73
2022-11-06T16:10:57.960Z,2.20
2022-11-06T16:13:25.684Z,2.30
2022-11-06T16:15:55.268Z,2.33
2022-11-06T16:18:29.197Z,2.40
2022-11-06T16:21:10.015Z,2.37
2022-11-06T16:23:58.808Z,2.20
2022-11-06T16:26:35.559Z,2.50
2022-11-06T16:29:07.830Z,2.47
2022-11-06T16:31:35.153Z,2.57
2022-11-06T16:34:06.060Z,2.70
2022-11-06T16:36:50.725Z,2.40
2022-11-06T16:39:17.321Z,2.47
2022-11-06T16:42:17.451Z,2.60
2022-11-06T16:44:46.481Z,2.90
2022-11-06T16:47:21.742Z,2.83
2022-11-06T16:49:54.331Z,2.83
2022-11-06T16:52:40.471Z,3.00
2022-11-06T16:55:25.546Z,3.63
2022-11-06T16:57:57.522Z,3.30
2022-11-06T17:00:27.053Z,3.17
2022-11-06T17:03:00.527Z,3.27
2022-11-06T17:05:33.633Z,3.40
2022-11-06T17:08:18.991Z,3.30
2022-11-06T17:10:46.728Z,3.43
2022-11-06T17:13:33.105Z,3.13
2022-11-06T17:16:02.442Z,3.60
2022-11-06T17:18:35.003Z,3.23
2022-11-06T17:21:04.556Z,3.30
2022-11-06T17:23:32.594Z,3.33
2022-11-06T17:26:17.180Z,3.33
2022-11-06T17:28:44.238Z,3.80
2022-11-06T17:31:13.139Z,3.47
2022-11-06T17:33:40.861Z,3.67
2022-11-06T17:36:12.145Z,3.97
2022-11-06T17:38:38.840Z,3.90
2022-11-06T17:41:05.656Z,4.07
2022-11-06T17:43:32.385Z,3.47
2022-11-06T17:45:59.037Z,3.70
2022-11-06T17:48:25.825Z,3.50
2022-11-06T17:51:11.182Z,3.60
2022-11-06T17:53:37.846Z,3.80
2022-11-06T17:56:06.183Z,3.53
2022-11-06T17:58:33.960Z,3.70
2022-11-06T18:01:08.431Z,3.70
2022-11-06T18:03:37.792Z,3.63
2022-11-06T18:06:04.635Z,3.50
2022-11-06T18:08:31.315Z,3.50
2022-11-06T18:10:58.000Z,3.37
2022-11-06T18:13:26.536Z,3.60
2022-11-06T18:15:53.424Z,3.43
2022-11-06T18:18:20.390Z,3.60
2022-11-06T18:20:48.078Z,3.97
2022-11-06T18:23:15.012Z,3.30
2022-11-06T18:25:42.125Z,3.50
2022-11-06T18:28:09.038Z,3.57
2022-11-06T18:30:38.101Z,3.43
2022-11-06T18:33:04.761Z,3.60
2022-11-06T18:35:31.423Z,3.53
2022-11-06T18:37:58.166Z,3.63
2022-11-06T18:40:24.850Z,3.43
2022-11-06T18:42:54.455Z,3.23
2022-11-06T18:45:21.229Z,3.60
2022-11-06T18:47:48.041Z,3.67
2022-11-06T18:50:14.729Z,3.43
2022-11-06T18:52:57.008Z,3.10
2022-11-06T18:55:24.925Z,3.57
2022-11-06T18:57:51.646Z,3.53
2022-11-06T19:00:21.856Z,3.47
2022-11-06T19:02:48.797Z,3.30
2022-11-06T19:05:15.902Z,3.50
2022-11-06T19:07:47.782Z,3.07
2022-11-06T19:10:17.383Z,3.00
2022-11-06T19:12:44.482Z,3.20
2022-11-06T19:15:11.205Z,3.10
2022-11-06T19:17:38.047Z,2.97
2022-11-06T19:20:06.735Z,3.33
2022-11-06T19:22:34.337Z,3.50
2022-11-06T19:25:01.049Z,3.23
2022-11-06T19:27:27.816Z,2.80
2022-11-06T19:29:54.615Z,2.70
2022-11-06T19:32:21.402Z,3.27
2022-11-06T19:34:48.108Z,3.07
2022-11-06T19:37:14.783Z,3.00
2022-11-06T19:39:41.453Z,3.20
2022-11-06T19:42:08.156Z,3.10
2022-11-06T19:44:34.823Z,3.20
2022-11-06T19:47:01.508Z,3.00
2022-11-06T19:49:28.158Z,2.60
2022-11-06T19:51:54.954Z,2.87
2022-11-06T19:54:21.579Z,2.70
2022-11-06T19:57:29.220Z,2.80
2022-11-06T19:59:37.621Z,2.50
2022-11-06T20:02:04.650Z,2.70
2022-11-06T20:04:31.447Z,2.50
2022-11-06T20:06:58.152Z,2.67
2022-11-06T20:09:24.882Z,2.53
2022-11-06T20:11:51.994Z,2.80
2022-11-06T20:14:21.923Z,2.57
2022-11-06T20:16:49.683Z,2.50
2022-11-06T20:19:16.501Z,2.33
2022-11-06T20:21:43.235Z,2.43
2022-11-06T20:24:10.287Z,2.40
2022-11-06T20:26:37.736Z,2.50
2022-11-06T20:29:04.733Z,2.50
2022-11-06T20:31:32.182Z,2.60
2022-11-06T20:33:59.262Z,2.50
2022-11-06T20:36:28.394Z,2.60
2022-11-06T20:38:57.511Z,2.40
2022-11-06T20:41:24.752Z,2.97
2022-11-06T20:43:52.434Z,2.73
2022-11-06T20:46:19.860Z,2.80
2022-11-06T20:48:48.024Z,2.57
2022-11-06T20:51:18.224Z,2.63
2022-11-06T20:53:45.832Z,2.60
2022-11-06T20:56:15.227Z,2.70
2022-11-06T20:58:42.134Z,2.70
2022-11-06T21:01:11.231Z,2.97
2022-11-06T21:03:39.238Z,2.30
2022-11-06T21:06:06.472Z,2.50
2022-11-06T21:08:34.542Z,2.43
2022-11-06T21:11:06.987Z,2.73
2022-11-06T21:13:35.137Z,2.57
2022-11-06T21:16:08.359Z,2.60
2022-11-06T21:18:36.549Z,2.40
2022-11-06T21:21:05.391Z,2.27
2022-11-06T21:23:32.480Z,2.07
2022-11-06T21:26:04.603Z,2.37
2022-11-06T21:28:33.375Z,2.40
2022-11-06T21:31:00.436Z,2.07
2022-11-06T21:33:27.072Z,2.00
2022-11-06T21:35:53.807Z,2.00
2022-11-06T21:38:20.531Z,2.00
2022-11-06T21:40:47.336Z,1.70
2022-11-06T21:43:14.322Z,2.20
2022-11-06T21:45:41.316Z,1.87
2022-11-06T21:48:14.835Z,2.00
2022-11-06T21:50:52.552Z,1.83
2022-11-06T21:53:37.917Z,2.03
2022-11-06T21:56:06.412Z,1.40
2022-11-06T21:58:33.112Z,1.70
2022-11-06T22:01:02.791Z,1.63
2022-11-06T22:03:29.719Z,1.40
2022-11-06T22:05:56.454Z,1.70
2022-11-06T22:08:25.247Z,1.33
2022-11-06T22:10:54.966Z,1.50
2022-11-06T22:13:21.617Z,1.30
2022-11-06T22:15:48.346Z,1.33
2022-11-06T22:18:15.440Z,1.40
2022-11-06T22:20:42.516Z,1.30
2022-11-06T22:23:09.202Z,1.00
2022-11-06T22:25:39.056Z,1.00
2022-11-06T22:28:05.883Z,1.10
2022-11-06T22:30:32.550Z,1.10
2022-11-06T22:32:59.629Z,1.10
2022-11-06T22:35:26.528Z,1.00
2022-11-06T22:37:53.318Z,1.17
2022-11-06T22:40:20.351Z,1.20
2022-11-06T22:42:49.652Z,1.10
2022-11-06T22:45:18.123Z,0.83
2022-11-06T22:47:46.719Z,1.00
2022-11-06T22:50:14.070Z,1.10
2022-11-06T22:52:41.713Z,1.07
2022-11-06T22:55:09.157Z,1.17
2022-11-06T22:57:35.876Z,1.40
2022-11-06T23:00:04.098Z,1.27
2022-11-06T23:02:31.270Z,0.87
2022-11-06T23:04:58.255Z,0.97
2022-11-06T23:07:24.988Z,0.93
2022-11-06T23:09:51.937Z,0.90
2022-11-06T23:12:18.948Z,1.17
2022-11-06T23:14:48.099Z,1.20
2022-11-06T23:17:15.310Z,1.10
2022-11-06T23:19:45.106Z,1.00
2022-11-06T23:22:30.643Z,1.10
2022-11-06T23:24:57.481Z,1.10
2022-11-06T23:27:26.277Z,1.00
2022-11-06T23:29:56.081Z,0.80
2022-11-06T23:32:23.066Z,1.20
2022-11-06T23:34:51.118Z,1.20
2022-11-06T23:37:17.921Z,1.00
2022-11-06T23:39:44.878Z,1.03
2022-11-06T23:42:22.594Z,1.07
2022-11-06T23:45:09.118Z,1.00
2022-11-06T23:47:36.491Z,1.00
2022-11-06T23:50:04.127Z,1.00
2022-11-06T23:52:31.101Z,1.00
2022-11-06T23:54:57.852Z,1.17
2022-11-06T23:57:25.209Z,1.17
2022-11-06T23:59:52.530Z,1.07
